Time,TemperatureF,DewpointF,PressureIn,WindDirection,WindDirectionDegrees,WindSpeedMPH,WindSpeedGustMPH,Humidity,HourlyPrecipIn,Conditions,Clouds,dailyrainin,SoftwareType,DateUTC
2013-05-24 00:00:00,47.0,36.0,-100.00,North,-999,-999.0,-999.0,65,-99.99,,,-99.99,,2013-05-24 06:00:00,
2013-05-24 00:42:00,47.0,36.0,-100.00,North,-999,-999.0,-999.0,65,-99.99,,,-99.99,,2013-05-24 06:42:00,
2013-05-24 00:52:00,47.0,36.0,-100.00,North,-999,-999.0,-999.0,65,-99.99,,,-99.99,,2013-05-24 06:52:00,
2013-05-24 02:00:00,42.0,37.0,-100.00,North,-999,-999.0,-999.0,83,-99.99,,,0.00,,2013-05-24 08:00:00,
2013-05-24 02:52:00,42.0,37.0,-100.00,North,-999,-999.0,-999.0,83,-99.99,,,0.00,,2013-05-24 08:52:00,
2013-05-24 03:00:00,41.0,36.0,-100.00,North,-999,-999.0,-999.0,81,-99.99,,,-99.99,,2013-05-24 09:00:00,
2013-05-24 03:53:00,41.0,36.0,-100.00,North,-999,-999.0,-999.0,81,-99.99,,,-99.99,,2013-05-24 09:53:00,
2013-05-24 04:00:00,41.0,38.0,-100.00,North,-999,-999.0,-999.0,92,-99.99,,,-99.99,,2013-05-24 10:00:00,
2013-05-24 04:52:00,41.0,38.0,-100.00,North,-999,-999.0,-999.0,92,-99.99,,,-99.99,,2013-05-24 10:52:00,
2013-05-24 05:00:00,40.0,38.0,-100.00,North,-999,-999.0,-999.0,93,-99.99,,,0.00,,2013-05-24 11:00:00,
2013-05-24 05:52:00,40.0,38.0,-100.00,North,-999,-999.0,-999.0,93,-99.99,,,0.00,,2013-05-24 11:52:00,
2013-05-24 06:00:00,41.0,38.0,-100.00,North,-999,-999.0,-999.0,89,-99.99,,,-99.99,,2013-05-24 12:00:00,
2013-05-24 06:52:00,41.0,38.0,-100.00,North,-999,-999.0,-999.0,89,-99.99,,,-99.99,,2013-05-24 12:52:00,
2013-05-24 07:00:00,42.0,36.0,-100.00,North,-999,-999.0,-999.0,78,-99.99,,,-99.99,,2013-05-24 13:00:00,
2013-05-24 07:52:00,42.0,36.0,-100.00,North,-999,-999.0,-999.0,78,-99.99,,,-99.99,,2013-05-24 13:52:00,
2013-05-24 08:00:00,45.0,36.0,-100.00,North,-999,-999.0,-999.0,69,-99.99,,,0.00,,2013-05-24 14:00:00,
2013-05-24 08:52:00,45.0,36.0,-100.00,North,-999,-999.0,-999.0,69,-99.99,,,0.00,,2013-05-24 14:52:00,
2013-05-24 09:00:00,47.0,34.0,-100.00,North,-999,-999.0,-999.0,61,-99.99,,,-99.99,,2013-05-24 15:00:00,
2013-05-24 09:52:00,47.0,34.0,-100.00,North,-999,-999.0,-999.0,61,-99.99,,,-99.99,,2013-05-24 15:52:00,
2013-05-24 10:00:00,48.0,30.0,-100.00,North,-999,-999.0,-999.0,51,-99.99,,,-99.99,,2013-05-24 16:00:00,
2013-05-24 10:52:00,48.0,30.0,-100.00,North,-999,-999.0,-999.0,51,-99.99,,,-99.99,,2013-05-24 16:52:00,
2013-05-24 11:00:00,52.0,27.0,-100.00,North,-999,-999.0,-999.0,38,-99.99,,,0.00,,2013-05-24 17:00:00,
2013-05-24 11:52:00,52.0,27.0,-100.00,North,-999,-999.0,-999.0,38,-99.99,,,0.00,,2013-05-24 17:52:00,
2013-05-24 12:00:00,55.0,23.0,-100.00,North,-999,-999.0,-999.0,28,-99.99,,,-99.99,,2013-05-24 18:00:00,
2013-05-24 12:52:00,55.0,23.0,-100.00,North,-999,-999.0,-999.0,28,-99.99,,,-99.99,,2013-05-24 18:52:00,
2013-05-24 13:00:00,55.0,16.0,-100.00,North,-999,-999.0,-999.0,21,-99.99,,,-99.99,,2013-05-24 19:00:00,
2013-05-24 13:52:00,55.0,16.0,-100.00,North,-999,-999.0,-999.0,21,-99.99,,,-99.99,,2013-05-24 19:52:00,
2013-05-24 14:00:00,56.0,14.0,-100.00,North,-999,-999.0,-999.0,19,-99.99,,,0.00,,2013-05-24 20:00:00,
2013-05-24 14:52:00,56.0,14.0,-100.00,North,-999,-999.0,-999.0,19,-99.99,,,0.00,,2013-05-24 20:52:00,
2013-05-24 15:00:00,55.0,12.0,-100.00,North,-999,-999.0,-999.0,18,-99.99,,,-99.99,,2013-05-24 21:00:00,
2013-05-24 15:53:00,55.0,12.0,-100.00,North,-999,-999.0,-999.0,18,-99.99,,,-99.99,,2013-05-24 21:53:00,
2013-05-24 16:00:00,56.0,10.0,-100.00,North,-999,-999.0,-999.0,16,-99.99,,,-99.99,,2013-05-24 22:00:00,
2013-05-24 16:52:00,56.0,10.0,-100.00,North,-999,-999.0,-999.0,16,-99.99,,,-99.99,,2013-05-24 22:52:00,
2013-05-24 17:00:00,56.0,12.0,-100.00,North,-999,-999.0,-999.0,17,-99.99,,,0.00,,2013-05-24 23:00:00,
2013-05-24 17:52:00,56.0,12.0,-100.00,North,-999,-999.0,-999.0,17,-99.99,,,0.00,,2013-05-24 23:52:00,
2013-05-24 18:00:00,55.0,17.0,-100.00,North,-999,-999.0,-999.0,22,-99.99,,,-99.99,,2013-05-25 00:00:00,
2013-05-24 18:52:00,55.0,17.0,-100.00,North,-999,-999.0,-999.0,22,-99.99,,,-99.99,,2013-05-25 00:52:00,
2013-05-24 19:00:00,52.0,13.0,-100.00,North,-999,-999.0,-999.0,21,-99.99,,,-99.99,,2013-05-25 01:00:00,
2013-05-24 19:52:00,52.0,13.0,-100.00,North,-999,-999.0,-999.0,21,-99.99,,,-99.99,,2013-05-25 01:52:00,
2013-05-24 20:00:00,47.0,32.0,-100.00,North,-999,-999.0,-999.0,55,-99.99,,,0.00,,2013-05-25 02:00:00,
2013-05-24 20:52:00,47.0,32.0,-100.00,North,-999,-999.0,-999.0,55,-99.99,,,0.00,,2013-05-25 02:52:00,
2013-05-24 21:00:00,43.0,36.0,-100.00,North,-999,-999.0,-999.0,74,-99.99,,,-99.99,,2013-05-25 03:00:00,
2013-05-24 21:53:00,43.0,36.0,-100.00,North,-999,-999.0,-999.0,74,-99.99,,,-99.99,,2013-05-25 03:53:00,
2013-05-24 22:00:00,41.0,35.0,-100.00,North,-999,-999.0,-999.0,78,-99.99,,,-99.99,,2013-05-25 04:00:00,
2013-05-24 22:53:00,41.0,35.0,-100.00,North,-999,-999.0,-999.0,78,-99.99,,,-99.99,,2013-05-25 04:53:00,
2013-05-24 23:00:00,41.0,34.0,-100.00,North,-999,-999.0,-999.0,77,-99.99,,,0.00,,2013-05-25 05:00:00,
2013-05-24 23:52:00,41.0,34.0,-100.00,North,-999,-999.0,-999.0,77,-99.99,,,0.00,,2013-05-25 05:52:00,